sensor_id;sensor_type;location;lat;lon;timestamp;temperature;humidity
18147;DHT22;9199;48.832;9.182;2022-07-05T00:00:42;17.60;99.90
18147;DHT22;9199;48.832;9.182;2022-07-05T00:03:09;17.60;99.90
18147;DHT22;9199;48.832;9.182;2022-07-05T00:05:37;17.70;99.90
18147;DHT22;9199;48.832;9.182;2022-07-05T00:08:04;17.80;99.90
18147;DHT22;9199;48.832;9.182;2022-07-05T00:10:31;18.00;99.90
18147;DHT22;9199;48.832;9.182;2022-07-05T00:12:58;18.00;99.90
18147;DHT22;9199;48.832;9.182;2022-07-05T00:15:25;17.90;99.90
18147;DHT22;9199;48.832;9.182;2022-07-05T00:17:52;17.70;99.90
18147;DHT22;9199;48.832;9.182;2022-07-05T00:20:18;17.70;99.90
18147;DHT22;9199;48.832;9.182;2022-07-05T00:22:46;17.60;99.90
18147;DHT22;9199;48.832;9.182;2022-07-05T00:25:13;17.50;99.90
18147;DHT22;9199;48.832;9.182;2022-07-05T00:27:40;17.50;99.90
18147;DHT22;9199;48.832;9.182;2022-07-05T00:30:09;17.50;99.90
18147;DHT22;9199;48.832;9.182;2022-07-05T00:32:36;17.50;99.90
18147;DHT22;9199;48.832;9.182;2022-07-05T00:35:04;17.40;99.90
18147;DHT22;9199;48.832;9.182;2022-07-05T00:37:31;17.40;99.90
18147;DHT22;9199;48.832;9.182;2022-07-05T00:39:59;17.30;99.90
18147;DHT22;9199;48.832;9.182;2022-07-05T00:42:26;17.30;99.90
18147;DHT22;9199;48.832;9.182;2022-07-05T00:44:53;17.20;99.90
18147;DHT22;9199;48.832;9.182;2022-07-05T00:47:20;17.20;99.90
18147;DHT22;9199;48.832;9.182;2022-07-05T00:49:46;17.20;99.90
18147;DHT22;9199;48.832;9.182;2022-07-05T00:52:14;17.20;99.90
18147;DHT22;9199;48.832;9.182;2022-07-05T00:54:41;17.10;99.90
18147;DHT22;9199;48.832;9.182;2022-07-05T00:57:10;17.10;99.90
18147;DHT22;9199;48.832;9.182;2022-07-05T00:59:36;17.10;99.90
18147;DHT22;9199;48.832;9.182;2022-07-05T01:02:03;17.00;99.90
18147;DHT22;9199;48.832;9.182;2022-07-05T01:04:30;17.00;99.90
18147;DHT22;9199;48.832;9.182;2022-07-05T01:06:57;17.00;99.90
18147;DHT22;9199;48.832;9.182;2022-07-05T01:09:24;16.90;99.90
18147;DHT22;9199;48.832;9.182;2022-07-05T01:11:51;16.90;99.90
18147;DHT22;9199;48.832;9.182;2022-07-05T01:14:22;16.80;99.90
18147;DHT22;9199;48.832;9.182;2022-07-05T01:16:51;16.70;99.90
18147;DHT22;9199;48.832;9.182;2022-07-05T01:19:20;16.70;99.90
18147;DHT22;9199;48.832;9.182;2022-07-05T01:21:48;16.60;99.90
18147;DHT22;9199;48.832;9.182;2022-07-05T01:24:18;16.50;99.90
18147;DHT22;9199;48.832;9.182;2022-07-05T01:26:48;16.50;99.90
18147;DHT22;9199;48.832;9.182;2022-07-05T01:29:15;16.60;99.90
18147;DHT22;9199;48.832;9.182;2022-07-05T01:31:42;16.60;99.90
18147;DHT22;9199;48.832;9.182;2022-07-05T01:34:09;16.60;99.90
18147;DHT22;9199;48.832;9.182;2022-07-05T01:36:37;16.60;99.90
18147;DHT22;9199;48.832;9.182;2022-07-05T01:39:05;16.60;99.90
18147;DHT22;9199;48.832;9.182;2022-07-05T01:41:33;16.50;99.90
18147;DHT22;9199;48.832;9.182;2022-07-05T01:44:01;16.50;99.90
18147;DHT22;9199;48.832;9.182;2022-07-05T01:46:31;16.50;99.90
18147;DHT22;9199;48.832;9.182;2022-07-05T01:48:58;16.50;99.90
18147;DHT22;9199;48.832;9.182;2022-07-05T01:51:30;16.40;99.90
18147;DHT22;9199;48.832;9.182;2022-07-05T01:53:59;16.30;99.90
18147;DHT22;9199;48.832;9.182;2022-07-05T01:56:26;16.20;99.90
18147;DHT22;9199;48.832;9.182;2022-07-05T01:58:55;16.10;99.90
18147;DHT22;9199;48.832;9.182;2022-07-05T02:01:36;16.00;99.90
18147;DHT22;9199;48.832;9.182;2022-07-05T02:06:32;16.00;99.90
18147;DHT22;9199;48.832;9.182;2022-07-05T02:08:59;15.90;99.90
18147;DHT22;9199;48.832;9.182;2022-07-05T02:11:26;15.80;99.90
18147;DHT22;9199;48.832;9.182;2022-07-05T02:13:54;15.70;99.90
18147;DHT22;9199;48.832;9.182;2022-07-05T02:16:22;15.60;99.90
18147;DHT22;9199;48.832;9.182;2022-07-05T02:18:49;15.60;99.90
18147;DHT22;9199;48.832;9.182;2022-07-05T02:21:16;15.50;99.90
18147;DHT22;9199;48.832;9.182;2022-07-05T02:23:43;15.50;99.90
18147;DHT22;9199;48.832;9.182;2022-07-05T02:26:10;15.50;99.90
18147;DHT22;9199;48.832;9.182;2022-07-05T02:28:37;15.50;99.90
18147;DHT22;9199;48.832;9.182;2022-07-05T02:31:05;15.40;99.90
18147;DHT22;9199;48.832;9.182;2022-07-05T02:33:32;15.50;99.90
18147;DHT22;9199;48.832;9.182;2022-07-05T02:36:06;15.40;99.90
18147;DHT22;9199;48.832;9.182;2022-07-05T02:38:33;15.40;99.90
18147;DHT22;9199;48.832;9.182;2022-07-05T02:41:00;15.40;99.90
18147;DHT22;9199;48.832;9.182;2022-07-05T02:43:27;15.40;99.90
18147;DHT22;9199;48.832;9.182;2022-07-05T02:45:53;15.40;99.90
18147;DHT22;9199;48.832;9.182;2022-07-05T02:48:21;15.50;99.90
18147;DHT22;9199;48.832;9.182;2022-07-05T02:50:48;15.50;99.90
18147;DHT22;9199;48.832;9.182;2022-07-05T02:53:15;15.50;99.90
18147;DHT22;9199;48.832;9.182;2022-07-05T02:55:42;15.50;99.90
18147;DHT22;9199;48.832;9.182;2022-07-05T02:58:08;15.50;99.90
18147;DHT22;9199;48.832;9.182;2022-07-05T03:00:35;15.40;99.90
18147;DHT22;9199;48.832;9.182;2022-07-05T03:03:02;15.30;99.90
18147;DHT22;9199;48.832;9.182;2022-07-05T03:05:30;15.20;99.90
18147;DHT22;9199;48.832;9.182;2022-07-05T03:07:57;15.20;99.90
18147;DHT22;9199;48.832;9.182;2022-07-05T03:10:24;15.10;99.90
18147;DHT22;9199;48.832;9.182;2022-07-05T03:12:51;15.10;99.90
18147;DHT22;9199;48.832;9.182;2022-07-05T03:15:18;15.10;99.90
18147;DHT22;9199;48.832;9.182;2022-07-05T03:17:45;15.10;99.90
18147;DHT22;9199;48.832;9.182;2022-07-05T03:20:12;15.00;99.90
18147;DHT22;9199;48.832;9.182;2022-07-05T03:22:40;15.00;99.90
18147;DHT22;9199;48.832;9.182;2022-07-05T03:25:08;15.00;99.90
18147;DHT22;9199;48.832;9.182;2022-07-05T03:27:35;15.00;99.90
18147;DHT22;9199;48.832;9.182;2022-07-05T03:30:02;15.00;99.90
18147;DHT22;9199;48.832;9.182;2022-07-05T03:32:29;14.90;99.90
18147;DHT22;9199;48.832;9.182;2022-07-05T03:34:56;14.90;99.90
18147;DHT22;9199;48.832;9.182;2022-07-05T03:37:23;14.90;99.90
18147;DHT22;9199;48.832;9.182;2022-07-05T03:39:51;14.90;99.90
18147;DHT22;9199;48.832;9.182;2022-07-05T03:42:18;15.00;99.90
18147;DHT22;9199;48.832;9.182;2022-07-05T03:44:45;15.00;99.90
18147;DHT22;9199;48.832;9.182;2022-07-05T03:47:13;15.10;99.90
18147;DHT22;9199;48.832;9.182;2022-07-05T03:49:40;15.10;99.90
18147;DHT22;9199;48.832;9.182;2022-07-05T03:52:06;15.10;99.90
18147;DHT22;9199;48.832;9.182;2022-07-05T03:54:33;15.30;99.90
18147;DHT22;9199;48.832;9.182;2022-07-05T03:57:01;15.30;99.90
18147;DHT22;9199;48.832;9.182;2022-07-05T03:59:28;15.30;99.90
18147;DHT22;9199;48.832;9.182;2022-07-05T04:01:55;15.30;99.90
18147;DHT22;9199;48.832;9.182;2022-07-05T04:04:22;15.40;99.90
18147;DHT22;9199;48.832;9.182;2022-07-05T04:06:48;15.60;99.90
18147;DHT22;9199;48.832;9.182;2022-07-05T04:09:15;15.60;99.90
18147;DHT22;9199;48.832;9.182;2022-07-05T04:11:42;15.60;99.90
18147;DHT22;9199;48.832;9.182;2022-07-05T04:14:10;15.60;99.90
18147;DHT22;9199;48.832;9.182;2022-07-05T04:16:38;15.50;99.90
18147;DHT22;9199;48.832;9.182;2022-07-05T04:19:04;15.40;99.90
18147;DHT22;9199;48.832;9.182;2022-07-05T04:21:31;15.40;99.90
18147;DHT22;9199;48.832;9.182;2022-07-05T04:23:58;15.50;99.90
18147;DHT22;9199;48.832;9.182;2022-07-05T04:26:25;15.80;99.90
18147;DHT22;9199;48.832;9.182;2022-07-05T04:28:52;16.00;99.90
18147;DHT22;9199;48.832;9.182;2022-07-05T04:31:20;16.10;99.90
18147;DHT22;9199;48.832;9.182;2022-07-05T04:33:47;16.40;99.90
18147;DHT22;9199;48.832;9.182;2022-07-05T04:36:13;16.50;99.90
18147;DHT22;9199;48.832;9.182;2022-07-05T04:38:40;16.60;99.90
18147;DHT22;9199;48.832;9.182;2022-07-05T04:41:07;16.70;99.90
18147;DHT22;9199;48.832;9.182;2022-07-05T04:43:34;16.80;99.90
18147;DHT22;9199;48.832;9.182;2022-07-05T04:46:00;16.90;99.90
18147;DHT22;9199;48.832;9.182;2022-07-05T04:48:29;16.90;99.90
18147;DHT22;9199;48.832;9.182;2022-07-05T04:50:55;17.00;99.90
18147;DHT22;9199;48.832;9.182;2022-07-05T04:53:22;17.10;99.90
18147;DHT22;9199;48.832;9.182;2022-07-05T04:55:49;17.20;99.90
18147;DHT22;9199;48.832;9.182;2022-07-05T04:58:16;17.40;99.90
18147;DHT22;9199;48.832;9.182;2022-07-05T05:00:42;17.50;99.90
18147;DHT22;9199;48.832;9.182;2022-07-05T05:03:09;17.50;99.90
18147;DHT22;9199;48.832;9.182;2022-07-05T05:05:37;17.60;99.90
18147;DHT22;9199;48.832;9.182;2022-07-05T05:08:04;17.70;99.90
18147;DHT22;9199;48.832;9.182;2022-07-05T05:10:31;17.80;99.90
18147;DHT22;9199;48.832;9.182;2022-07-05T05:12:58;17.90;99.90
18147;DHT22;9199;48.832;9.182;2022-07-05T05:15:24;18.00;99.90
18147;DHT22;9199;48.832;9.182;2022-07-05T05:17:51;18.10;99.90
18147;DHT22;9199;48.832;9.182;2022-07-05T05:20:19;18.20;99.90
18147;DHT22;9199;48.832;9.182;2022-07-05T05:22:47;18.30;99.90
18147;DHT22;9199;48.832;9.182;2022-07-05T05:25:14;18.40;99.90
18147;DHT22;9199;48.832;9.182;2022-07-05T05:27:43;18.60;99.90
18147;DHT22;9199;48.832;9.182;2022-07-05T05:30:11;18.80;99.90
18147;DHT22;9199;48.832;9.182;2022-07-05T05:32:38;18.90;99.90
18147;DHT22;9199;48.832;9.182;2022-07-05T05:35:06;19.10;99.90
18147;DHT22;9199;48.832;9.182;2022-07-05T05:37:47;19.20;99.90
18147;DHT22;9199;48.832;9.182;2022-07-05T05:40:14;19.40;99.90
18147;DHT22;9199;48.832;9.182;2022-07-05T05:42:41;19.50;99.90
18147;DHT22;9199;48.832;9.182;2022-07-05T05:45:08;19.70;99.90
18147;DHT22;9199;48.832;9.182;2022-07-05T05:47:43;19.90;99.90
18147;DHT22;9199;48.832;9.182;2022-07-05T05:50:10;20.10;99.90
18147;DHT22;9199;48.832;9.182;2022-07-05T05:52:37;20.20;99.90
18147;DHT22;9199;48.832;9.182;2022-07-05T05:55:06;20.30;99.90
18147;DHT22;9199;48.832;9.182;2022-07-05T05:57:34;20.50;99.90
18147;DHT22;9199;48.832;9.182;2022-07-05T06:00:02;20.70;99.90
18147;DHT22;9199;48.832;9.182;2022-07-05T06:02:29;20.80;99.90
18147;DHT22;9199;48.832;9.182;2022-07-05T06:04:55;20.90;99.90
18147;DHT22;9199;48.832;9.182;2022-07-05T06:07:22;21.10;99.90
18147;DHT22;9199;48.832;9.182;2022-07-05T06:09:49;21.20;98.80
18147;DHT22;9199;48.832;9.182;2022-07-05T06:12:17;21.30;97.00
18147;DHT22;9199;48.832;9.182;2022-07-05T06:14:44;21.40;96.60
18147;DHT22;9199;48.832;9.182;2022-07-05T06:17:10;21.40;97.10
18147;DHT22;9199;48.832;9.182;2022-07-05T06:19:37;21.50;97.20
18147;DHT22;9199;48.832;9.182;2022-07-05T06:22:04;21.60;96.50
18147;DHT22;9199;48.832;9.182;2022-07-05T06:24:31;21.80;96.40
18147;DHT22;9199;48.832;9.182;2022-07-05T06:26:57;21.90;95.10
18147;DHT22;9199;48.832;9.182;2022-07-05T06:29:25;22.20;94.80
18147;DHT22;9199;48.832;9.182;2022-07-05T06:31:52;22.30;94.00
18147;DHT22;9199;48.832;9.182;2022-07-05T06:34:19;22.40;93.20
18147;DHT22;9199;48.832;9.182;2022-07-05T06:36:46;22.60;93.90
18147;DHT22;9199;48.832;9.182;2022-07-05T06:39:12;22.70;92.90
18147;DHT22;9199;48.832;9.182;2022-07-05T06:41:39;22.90;92.50
18147;DHT22;9199;48.832;9.182;2022-07-05T06:44:06;23.00;91.60
18147;DHT22;9199;48.832;9.182;2022-07-05T06:46:34;23.20;92.30
18147;DHT22;9199;48.832;9.182;2022-07-05T06:49:01;23.30;92.60
18147;DHT22;9199;48.832;9.182;2022-07-05T06:51:27;23.50;92.80
18147;DHT22;9199;48.832;9.182;2022-07-05T06:53:54;23.60;93.20
18147;DHT22;9199;48.832;9.182;2022-07-05T06:56:21;23.70;91.40
18147;DHT22;9199;48.832;9.182;2022-07-05T06:58:47;23.90;88.20
18147;DHT22;9199;48.832;9.182;2022-07-05T07:01:14;24.10;87.50
18147;DHT22;9199;48.832;9.182;2022-07-05T07:03:42;24.10;89.70
18147;DHT22;9199;48.832;9.182;2022-07-05T07:06:09;24.30;89.10
18147;DHT22;9199;48.832;9.182;2022-07-05T07:08:36;24.40;87.30
18147;DHT22;9199;48.832;9.182;2022-07-05T07:11:20;24.50;87.70
18147;DHT22;9199;48.832;9.182;2022-07-05T07:13:47;24.60;88.10
18147;DHT22;9199;48.832;9.182;2022-07-05T07:16:14;24.70;85.40
18147;DHT22;9199;48.832;9.182;2022-07-05T07:18:42;24.80;85.30
18147;DHT22;9199;48.832;9.182;2022-07-05T07:21:09;24.80;86.10
18147;DHT22;9199;48.832;9.182;2022-07-05T07:23:36;24.90;87.80
18147;DHT22;9199;48.832;9.182;2022-07-05T07:26:03;25.00;86.50
18147;DHT22;9199;48.832;9.182;2022-07-05T07:28:29;25.10;85.00
18147;DHT22;9199;48.832;9.182;2022-07-05T07:30:56;25.20;84.60
18147;DHT22;9199;48.832;9.182;2022-07-05T07:33:23;25.40;84.20
18147;DHT22;9199;48.832;9.182;2022-07-05T07:35:51;25.30;82.50
18147;DHT22;9199;48.832;9.182;2022-07-05T07:38:18;25.40;83.90
18147;DHT22;9199;48.832;9.182;2022-07-05T07:40:44;25.50;79.00
18147;DHT22;9199;48.832;9.182;2022-07-05T07:43:11;25.60;82.00
18147;DHT22;9199;48.832;9.182;2022-07-05T07:45:38;25.70;76.10
18147;DHT22;9199;48.832;9.182;2022-07-05T07:48:05;25.40;77.00
18147;DHT22;9199;48.832;9.182;2022-07-05T07:50:31;25.40;80.40
18147;DHT22;9199;48.832;9.182;2022-07-05T07:53:00;25.40;84.30
18147;DHT22;9199;48.832;9.182;2022-07-05T07:55:26;25.60;80.20
18147;DHT22;9199;48.832;9.182;2022-07-05T07:57:54;25.80;82.40
18147;DHT22;9199;48.832;9.182;2022-07-05T08:00:21;26.10;78.40
18147;DHT22;9199;48.832;9.182;2022-07-05T08:02:48;26.30;79.20
18147;DHT22;9199;48.832;9.182;2022-07-05T08:05:15;26.50;77.70
18147;DHT22;9199;48.832;9.182;2022-07-05T08:07:41;26.70;74.00
18147;DHT22;9199;48.832;9.182;2022-07-05T08:10:10;26.60;72.80
18147;DHT22;9199;48.832;9.182;2022-07-05T08:12:37;26.60;76.40
18147;DHT22;9199;48.832;9.182;2022-07-05T08:15:04;26.70;74.50
18147;DHT22;9199;48.832;9.182;2022-07-05T08:17:33;26.90;74.50
18147;DHT22;9199;48.832;9.182;2022-07-05T08:20:00;26.90;74.20
18147;DHT22;9199;48.832;9.182;2022-07-05T08:22:44;27.00;72.70
18147;DHT22;9199;48.832;9.182;2022-07-05T08:25:12;27.10;74.30
18147;DHT22;9199;48.832;9.182;2022-07-05T08:27:39;27.20;72.40
18147;DHT22;9199;48.832;9.182;2022-07-05T08:30:08;27.20;69.80
18147;DHT22;9199;48.832;9.182;2022-07-05T08:32:34;26.90;69.20
18147;DHT22;9199;48.832;9.182;2022-07-05T08:35:02;26.70;73.30
18147;DHT22;9199;48.832;9.182;2022-07-05T08:37:28;26.80;71.10
18147;DHT22;9199;48.832;9.182;2022-07-05T08:39:55;27.00;68.70
18147;DHT22;9199;48.832;9.182;2022-07-05T08:42:24;27.20;68.30
18147;DHT22;9199;48.832;9.182;2022-07-05T08:44:51;27.40;69.20
18147;DHT22;9199;48.832;9.182;2022-07-05T08:47:19;27.60;70.00
18147;DHT22;9199;48.832;9.182;2022-07-05T08:49:48;27.90;69.60
18147;DHT22;9199;48.832;9.182;2022-07-05T08:52:18;28.10;68.10
18147;DHT22;9199;48.832;9.182;2022-07-05T08:54:46;28.30;67.00
18147;DHT22;9199;48.832;9.182;2022-07-05T08:57:13;28.50;68.80
18147;DHT22;9199;48.832;9.182;2022-07-05T08:59:42;28.70;67.00
18147;DHT22;9199;48.832;9.182;2022-07-05T09:02:12;28.90;63.70
18147;DHT22;9199;48.832;9.182;2022-07-05T09:04:43;29.00;65.10
18147;DHT22;9199;48.832;9.182;2022-07-05T09:07:14;29.00;62.20
18147;DHT22;9199;48.832;9.182;2022-07-05T09:09:42;29.00;62.70
18147;DHT22;9199;48.832;9.182;2022-07-05T09:12:11;29.20;60.20
18147;DHT22;9199;48.832;9.182;2022-07-05T09:14:39;29.10;60.10
18147;DHT22;9199;48.832;9.182;2022-07-05T09:17:07;29.10;61.90
18147;DHT22;9199;48.832;9.182;2022-07-05T09:19:33;28.90;59.30
18147;DHT22;9199;48.832;9.182;2022-07-05T09:22:01;28.60;61.90
18147;DHT22;9199;48.832;9.182;2022-07-05T09:24:29;28.80;60.10
18147;DHT22;9199;48.832;9.182;2022-07-05T09:27:02;29.00;62.70
18147;DHT22;9199;48.832;9.182;2022-07-05T09:29:30;29.20;62.80
18147;DHT22;9199;48.832;9.182;2022-07-05T09:31:57;29.40;59.60
18147;DHT22;9199;48.832;9.182;2022-07-05T09:34:25;29.60;58.70
18147;DHT22;9199;48.832;9.182;2022-07-05T09:36:54;29.90;57.50
18147;DHT22;9199;48.832;9.182;2022-07-05T09:39:35;30.10;57.00
18147;DHT22;9199;48.832;9.182;2022-07-05T09:42:12;30.40;58.10
18147;DHT22;9199;48.832;9.182;2022-07-05T09:44:42;30.50;56.50
18147;DHT22;9199;48.832;9.182;2022-07-05T09:47:09;30.60;56.00
18147;DHT22;9199;48.832;9.182;2022-07-05T09:49:41;30.90;52.40
18147;DHT22;9199;48.832;9.182;2022-07-05T09:52:08;31.20;53.60
18147;DHT22;9199;48.832;9.182;2022-07-05T09:54:35;31.70;52.50
18147;DHT22;9199;48.832;9.182;2022-07-05T09:57:02;32.50;51.80
18147;DHT22;9199;48.832;9.182;2022-07-05T09:59:29;33.60;49.10
18147;DHT22;9199;48.832;9.182;2022-07-05T10:01:56;34.80;45.60
18147;DHT22;9199;48.832;9.182;2022-07-05T10:04:23;35.90;43.20
18147;DHT22;9199;48.832;9.182;2022-07-05T10:06:51;36.70;41.20
18147;DHT22;9199;48.832;9.182;2022-07-05T10:09:18;37.30;38.40
18147;DHT22;9199;48.832;9.182;2022-07-05T10:11:46;38.00;38.70
18147;DHT22;9199;48.832;9.182;2022-07-05T10:14:17;38.40;36.10
18147;DHT22;9199;48.832;9.182;2022-07-05T10:16:46;38.90;33.60
18147;DHT22;9199;48.832;9.182;2022-07-05T10:19:17;39.20;32.20
18147;DHT22;9199;48.832;9.182;2022-07-05T10:21:45;38.70;30.80
18147;DHT22;9199;48.832;9.182;2022-07-05T10:24:15;38.60;30.80
18147;DHT22;9199;48.832;9.182;2022-07-05T10:26:43;38.90;30.40
18147;DHT22;9199;48.832;9.182;2022-07-05T10:29:11;39.00;31.50
18147;DHT22;9199;48.832;9.182;2022-07-05T10:31:39;39.10;30.50
18147;DHT22;9199;48.832;9.182;2022-07-05T10:34:06;39.50;29.90
18147;DHT22;9199;48.832;9.182;2022-07-05T10:36:36;40.00;30.10
18147;DHT22;9199;48.832;9.182;2022-07-05T10:39:05;40.40;29.30
18147;DHT22;9199;48.832;9.182;2022-07-05T10:41:34;40.80;28.20
18147;DHT22;9199;48.832;9.182;2022-07-05T10:44:01;40.60;28.60
18147;DHT22;9199;48.832;9.182;2022-07-05T10:46:35;40.80;28.90
18147;DHT22;9199;48.832;9.182;2022-07-05T10:49:14;41.30;27.20
18147;DHT22;9199;48.832;9.182;2022-07-05T10:51:42;41.10;27.80
18147;DHT22;9199;48.832;9.182;2022-07-05T10:54:09;40.60;28.40
18147;DHT22;9199;48.832;9.182;2022-07-05T10:56:37;38.30;28.50
18147;DHT22;9199;48.832;9.182;2022-07-05T10:59:07;37.40;29.90
18147;DHT22;9199;48.832;9.182;2022-07-05T11:01:39;37.60;29.30
18147;DHT22;9199;48.832;9.182;2022-07-05T11:04:27;38.30;30.80
18147;DHT22;9199;48.832;9.182;2022-07-05T11:06:56;38.90;27.50
18147;DHT22;9199;48.832;9.182;2022-07-05T11:09:24;38.10;29.60
18147;DHT22;9199;48.832;9.182;2022-07-05T11:12:06;38.60;29.60
18147;DHT22;9199;48.832;9.182;2022-07-05T11:14:37;39.70;30.20
18147;DHT22;9199;48.832;9.182;2022-07-05T11:17:13;40.70;28.70
18147;DHT22;9199;48.832;9.182;2022-07-05T11:20:02;40.70;25.90
18147;DHT22;9199;48.832;9.182;2022-07-05T11:22:30;40.30;25.70
18147;DHT22;9199;48.832;9.182;2022-07-05T11:28:21;40.80;27.30
18147;DHT22;9199;48.832;9.182;2022-07-05T11:30:54;41.40;27.40
18147;DHT22;9199;48.832;9.182;2022-07-05T11:33:49;41.50;26.60
18147;DHT22;9199;48.832;9.182;2022-07-05T11:36:22;41.40;28.70
18147;DHT22;9199;48.832;9.182;2022-07-05T11:39:10;41.50;27.30
18147;DHT22;9199;48.832;9.182;2022-07-05T11:41:39;42.00;26.20
18147;DHT22;9199;48.832;9.182;2022-07-05T11:44:07;42.00;27.20
18147;DHT22;9199;48.832;9.182;2022-07-05T11:46:34;41.90;26.80
18147;DHT22;9199;48.832;9.182;2022-07-05T11:49:01;42.10;26.90
18147;DHT22;9199;48.832;9.182;2022-07-05T11:51:28;42.10;26.40
18147;DHT22;9199;48.832;9.182;2022-07-05T11:53:55;42.30;27.60
18147;DHT22;9199;48.832;9.182;2022-07-05T11:56:22;42.60;27.20
18147;DHT22;9199;48.832;9.182;2022-07-05T11:58:49;42.40;25.50
18147;DHT22;9199;48.832;9.182;2022-07-05T12:01:17;41.40;26.80
18147;DHT22;9199;48.832;9.182;2022-07-05T12:03:52;41.20;26.30
18147;DHT22;9199;48.832;9.182;2022-07-05T12:06:21;40.00;27.30
18147;DHT22;9199;48.832;9.182;2022-07-05T12:09:01;40.40;27.40
18147;DHT22;9199;48.832;9.182;2022-07-05T12:11:29;41.40;27.30
18147;DHT22;9199;48.832;9.182;2022-07-05T12:14:20;42.20;26.00
18147;DHT22;9199;48.832;9.182;2022-07-05T12:16:49;42.60;25.30
18147;DHT22;9199;48.832;9.182;2022-07-05T12:19:26;41.10;27.40
18147;DHT22;9199;48.832;9.182;2022-07-05T12:28:00;40.10;27.50
18147;DHT22;9199;48.832;9.182;2022-07-05T12:30:29;40.40;27.10
18147;DHT22;9199;48.832;9.182;2022-07-05T12:32:59;40.80;28.30
18147;DHT22;9199;48.832;9.182;2022-07-05T12:35:28;41.60;27.70
18147;DHT22;9199;48.832;9.182;2022-07-05T12:37:55;42.10;26.70
18147;DHT22;9199;48.832;9.182;2022-07-05T12:40:23;42.60;26.40
18147;DHT22;9199;48.832;9.182;2022-07-05T12:43:00;42.10;25.80
18147;DHT22;9199;48.832;9.182;2022-07-05T12:45:27;41.70;27.30
18147;DHT22;9199;48.832;9.182;2022-07-05T12:47:55;42.00;27.10
18147;DHT22;9199;48.832;9.182;2022-07-05T12:50:25;42.50;26.60
18147;DHT22;9199;48.832;9.182;2022-07-05T12:53:03;42.70;26.20
18147;DHT22;9199;48.832;9.182;2022-07-05T12:55:44;42.60;26.40
18147;DHT22;9199;48.832;9.182;2022-07-05T12:58:29;42.30;26.20
18147;DHT22;9199;48.832;9.182;2022-07-05T13:00:55;42.10;26.80
18147;DHT22;9199;48.832;9.182;2022-07-05T13:03:22;42.60;26.80
18147;DHT22;9199;48.832;9.182;2022-07-05T13:06:01;42.50;26.10
18147;DHT22;9199;48.832;9.182;2022-07-05T13:08:29;42.60;25.70
18147;DHT22;9199;48.832;9.182;2022-07-05T13:10:55;42.70;25.40
18147;DHT22;9199;48.832;9.182;2022-07-05T13:13:24;41.50;26.20
18147;DHT22;9199;48.832;9.182;2022-07-05T13:15:50;40.70;26.60
18147;DHT22;9199;48.832;9.182;2022-07-05T13:18:25;40.20;26.90
18147;DHT22;9199;48.832;9.182;2022-07-05T13:20:52;39.90;27.60
18147;DHT22;9199;48.832;9.182;2022-07-05T13:23:20;40.00;27.50
18147;DHT22;9199;48.832;9.182;2022-07-05T13:25:47;40.20;27.70
18147;DHT22;9199;48.832;9.182;2022-07-05T13:28:13;41.00;27.90
18147;DHT22;9199;48.832;9.182;2022-07-05T13:30:40;41.40;26.70
18147;DHT22;9199;48.832;9.182;2022-07-05T13:33:07;42.00;26.20
18147;DHT22;9199;48.832;9.182;2022-07-05T13:35:34;42.10;26.60
18147;DHT22;9199;48.832;9.182;2022-07-05T13:38:00;41.70;26.60
18147;DHT22;9199;48.832;9.182;2022-07-05T13:40:28;41.30;26.60
18147;DHT22;9199;48.832;9.182;2022-07-05T13:42:55;41.30;26.40
18147;DHT22;9199;48.832;9.182;2022-07-05T13:45:22;41.60;26.80
18147;DHT22;9199;48.832;9.182;2022-07-05T13:47:49;42.00;26.50
18147;DHT22;9199;48.832;9.182;2022-07-05T13:50:15;42.10;25.70
18147;DHT22;9199;48.832;9.182;2022-07-05T13:53:02;42.20;25.90
18147;DHT22;9199;48.832;9.182;2022-07-05T13:55:30;42.70;25.70
18147;DHT22;9199;48.832;9.182;2022-07-05T13:57:57;43.10;24.70
18147;DHT22;9199;48.832;9.182;2022-07-05T14:00:25;42.60;25.60
18147;DHT22;9199;48.832;9.182;2022-07-05T14:02:52;42.70;25.30
18147;DHT22;9199;48.832;9.182;2022-07-05T14:05:19;42.90;25.30
18147;DHT22;9199;48.832;9.182;2022-07-05T14:07:47;43.00;25.20
18147;DHT22;9199;48.832;9.182;2022-07-05T14:10:14;43.20;25.50
18147;DHT22;9199;48.832;9.182;2022-07-05T14:12:42;43.00;25.70
18147;DHT22;9199;48.832;9.182;2022-07-05T14:15:09;43.60;25.60
18147;DHT22;9199;48.832;9.182;2022-07-05T14:17:36;43.00;25.20
18147;DHT22;9199;48.832;9.182;2022-07-05T14:20:04;41.10;26.10
18147;DHT22;9199;48.832;9.182;2022-07-05T14:22:30;39.50;27.50
18147;DHT22;9199;48.832;9.182;2022-07-05T14:24:57;38.40;28.00
18147;DHT22;9199;48.832;9.182;2022-07-05T14:27:24;37.00;29.10
18147;DHT22;9199;48.832;9.182;2022-07-05T14:29:52;36.70;29.60
18147;DHT22;9199;48.832;9.182;2022-07-05T14:32:19;38.10;28.70
18147;DHT22;9199;48.832;9.182;2022-07-05T14:34:46;39.40;28.00
18147;DHT22;9199;48.832;9.182;2022-07-05T14:37:13;39.90;26.90
18147;DHT22;9199;48.832;9.182;2022-07-05T14:39:40;39.50;26.50
18147;DHT22;9199;48.832;9.182;2022-07-05T14:42:06;40.00;27.80
18147;DHT22;9199;48.832;9.182;2022-07-05T14:44:33;40.70;26.70
18147;DHT22;9199;48.832;9.182;2022-07-05T14:47:01;40.90;26.40
18147;DHT22;9199;48.832;9.182;2022-07-05T14:49:28;40.30;27.10
18147;DHT22;9199;48.832;9.182;2022-07-05T14:51:55;40.00;27.10
18147;DHT22;9199;48.832;9.182;2022-07-05T14:54:21;40.30;26.90
18147;DHT22;9199;48.832;9.182;2022-07-05T14:56:48;40.30;27.20
18147;DHT22;9199;48.832;9.182;2022-07-05T14:59:15;40.70;26.20
18147;DHT22;9199;48.832;9.182;2022-07-05T15:01:42;41.10;26.00
18147;DHT22;9199;48.832;9.182;2022-07-05T15:04:10;40.60;26.80
18147;DHT22;9199;48.832;9.182;2022-07-05T15:06:37;40.60;26.20
18147;DHT22;9199;48.832;9.182;2022-07-05T15:09:05;40.70;26.40
18147;DHT22;9199;48.832;9.182;2022-07-05T15:11:32;40.50;26.10
18147;DHT22;9199;48.832;9.182;2022-07-05T15:13:58;38.90;27.40
18147;DHT22;9199;48.832;9.182;2022-07-05T15:16:27;37.40;28.50
18147;DHT22;9199;48.832;9.182;2022-07-05T15:18:54;37.20;28.00
18147;DHT22;9199;48.832;9.182;2022-07-05T15:21:22;37.50;28.90
18147;DHT22;9199;48.832;9.182;2022-07-05T15:23:49;38.30;28.20
18147;DHT22;9199;48.832;9.182;2022-07-05T15:26:16;38.60;27.60
18147;DHT22;9199;48.832;9.182;2022-07-05T15:28:43;39.00;28.20
18147;DHT22;9199;48.832;9.182;2022-07-05T15:31:10;39.40;28.00
18147;DHT22;9199;48.832;9.182;2022-07-05T15:33:36;39.50;27.10
18147;DHT22;9199;48.832;9.182;2022-07-05T15:36:03;39.40;26.90
18147;DHT22;9199;48.832;9.182;2022-07-05T15:38:31;39.00;27.90
18147;DHT22;9199;48.832;9.182;2022-07-05T15:40:58;38.30;27.70
18147;DHT22;9199;48.832;9.182;2022-07-05T15:43:25;37.10;29.10
18147;DHT22;9199;48.832;9.182;2022-07-05T15:45:54;35.80;29.40
18147;DHT22;9199;48.832;9.182;2022-07-05T15:48:20;34.40;31.10
18147;DHT22;9199;48.832;9.182;2022-07-05T15:50:47;33.40;33.20
18147;DHT22;9199;48.832;9.182;2022-07-05T15:53:14;32.50;32.80
18147;DHT22;9199;48.832;9.182;2022-07-05T15:55:42;31.70;35.00
18147;DHT22;9199;48.832;9.182;2022-07-05T15:58:09;31.20;34.20
18147;DHT22;9199;48.832;9.182;2022-07-05T16:00:36;30.90;36.00
18147;DHT22;9199;48.832;9.182;2022-07-05T16:03:02;30.50;36.30